sensor_id;sensor_type;location;lat;lon;timestamp;pressure;altitude;pressure_sealevel;temperature;humidity
1401;BME280;46518;48.842;8.926;2022-10-16T00:00:13;97001.88;;;16.70;93.43
1401;BME280;46518;48.842;8.926;2022-10-16T00:02:41;97017.59;;;16.67;93.50
1401;BME280;46518;48.842;8.926;2022-10-16T00:05:09;97019.88;;;16.73;93.17
1401;BME280;46518;48.842;8.926;2022-10-16T00:07:38;97028.03;;;16.82;92.80
1401;BME280;46518;48.842;8.926;2022-10-16T00:10:06;97018.81;;;16.74;92.63
1401;BME280;46518;48.842;8.926;2022-10-16T00:12:35;97008.81;;;16.66;92.54
1401;BME280;46518;48.842;8.926;2022-10-16T00:15:05;97007.47;;;16.69;92.77
1401;BME280;46518;48.842;8.926;2022-10-16T00:17:33;97009.41;;;16.63;92.87
1401;BME280;46518;48.842;8.926;2022-10-16T00:20:02;97015.53;;;16.39;94.38
1401;BME280;46518;48.842;8.926;2022-10-16T00:22:49;97009.75;;;16.56;94.04
1401;BME280;46518;48.842;8.926;2022-10-16T00:25:17;97001.78;;;16.56;93.88
1401;BME280;46518;48.842;8.926;2022-10-16T00:27:45;96999.91;;;16.57;93.79
1401;BME280;46518;48.842;8.926;2022-10-16T00:30:15;97003.06;;;16.59;93.75
1401;BME280;46518;48.842;8.926;2022-10-16T00:32:43;97008.25;;;16.50;93.77
1401;BME280;46518;48.842;8.926;2022-10-16T00:35:11;97013.63;;;16.45;94.09
1401;BME280;46518;48.842;8.926;2022-10-16T00:37:39;97016.41;;;16.35;94.91
1401;BME280;46518;48.842;8.926;2022-10-16T00:40:08;97015.53;;;16.39;95.01
1401;BME280;46518;48.842;8.926;2022-10-16T00:42:36;97010.28;;;16.34;95.28
1401;BME280;46518;48.842;8.926;2022-10-16T00:45:06;97006.63;;;16.30;95.38
1401;BME280;46518;48.842;8.926;2022-10-16T00:47:39;97015.91;;;16.33;95.58
1401;BME280;46518;48.842;8.926;2022-10-16T00:50:12;97012.72;;;16.31;95.79
1401;BME280;46518;48.842;8.926;2022-10-16T00:52:46;97016.34;;;16.40;95.87
1401;BME280;46518;48.842;8.926;2022-10-16T00:55:15;97023.22;;;16.41;95.98
1401;BME280;46518;48.842;8.926;2022-10-16T00:57:46;97026.28;;;16.29;96.40
1401;BME280;46518;48.842;8.926;2022-10-16T01:00:19;97015.59;;;16.34;95.93
1401;BME280;46518;48.842;8.926;2022-10-16T01:02:53;97015.31;;;16.36;96.15
1401;BME280;46518;48.842;8.926;2022-10-16T01:05:23;97024.00;;;16.42;96.06
1401;BME280;46518;48.842;8.926;2022-10-16T01:07:56;97010.72;;;16.42;95.90
1401;BME280;46518;48.842;8.926;2022-10-16T01:10:30;97020.41;;;16.32;96.12
1401;BME280;46518;48.842;8.926;2022-10-16T01:13:03;97019.41;;;16.28;96.44
1401;BME280;46518;48.842;8.926;2022-10-16T01:15:35;97000.63;;;16.20;96.67
1401;BME280;46518;48.842;8.926;2022-10-16T01:18:14;96999.16;;;16.32;95.98
1401;BME280;46518;48.842;8.926;2022-10-16T01:20:46;97027.78;;;16.59;95.55
1401;BME280;46518;48.842;8.926;2022-10-16T01:23:27;97029.22;;;16.71;94.64
1401;BME280;46518;48.842;8.926;2022-10-16T01:26:10;97032.34;;;16.78;93.86
1401;BME280;46518;48.842;8.926;2022-10-16T01:28:49;97024.78;;;16.66;93.66
1401;BME280;46518;48.842;8.926;2022-10-16T01:31:25;97029.44;;;16.55;93.89
1401;BME280;46518;48.842;8.926;2022-10-16T01:33:59;97030.22;;;16.56;94.37
1401;BME280;46518;48.842;8.926;2022-10-16T01:36:35;97024.25;;;16.45;94.61
1401;BME280;46518;48.842;8.926;2022-10-16T01:39:10;97020.25;;;16.48;94.76
1401;BME280;46518;48.842;8.926;2022-10-16T01:41:41;97023.09;;;16.51;94.25
1401;BME280;46518;48.842;8.926;2022-10-16T01:44:15;97017.19;;;16.35;95.37
1401;BME280;46518;48.842;8.926;2022-10-16T01:46:46;97003.41;;;16.33;95.81
1401;BME280;46518;48.842;8.926;2022-10-16T01:49:17;97006.38;;;16.51;95.35
1401;BME280;46518;48.842;8.926;2022-10-16T01:51:48;97007.81;;;16.43;94.83
1401;BME280;46518;48.842;8.926;2022-10-16T01:54:19;97012.34;;;16.43;94.62
1401;BME280;46518;48.842;8.926;2022-10-16T01:56:48;97013.84;;;16.49;94.65
1401;BME280;46518;48.842;8.926;2022-10-16T01:59:21;97008.38;;;16.59;94.15
1401;BME280;46518;48.842;8.926;2022-10-16T02:01:54;97011.56;;;16.61;94.15
1401;BME280;46518;48.842;8.926;2022-10-16T02:04:26;97015.00;;;16.61;93.41
1401;BME280;46518;48.842;8.926;2022-10-16T02:06:56;97013.34;;;16.66;93.28
1401;BME280;46518;48.842;8.926;2022-10-16T02:09:24;97012.41;;;16.56;93.56
1401;BME280;46518;48.842;8.926;2022-10-16T02:11:54;97015.50;;;16.64;93.54
1401;BME280;46518;48.842;8.926;2022-10-16T02:14:26;97012.56;;;16.65;92.98
1401;BME280;46518;48.842;8.926;2022-10-16T02:16:54;97014.41;;;16.65;93.02
1401;BME280;46518;48.842;8.926;2022-10-16T02:19:22;97014.72;;;16.63;92.96
1401;BME280;46518;48.842;8.926;2022-10-16T02:21:54;97017.88;;;16.65;92.82
1401;BME280;46518;48.842;8.926;2022-10-16T02:24:30;97008.19;;;16.55;92.49
1401;BME280;46518;48.842;8.926;2022-10-16T02:27:04;97009.53;;;16.72;92.28
1401;BME280;46518;48.842;8.926;2022-10-16T02:29:39;97013.50;;;16.74;91.25
1401;BME280;46518;48.842;8.926;2022-10-16T02:32:12;97016.59;;;16.63;91.83
1401;BME280;46518;48.842;8.926;2022-10-16T02:34:44;97009.16;;;16.59;92.08
1401;BME280;46518;48.842;8.926;2022-10-16T02:37:13;97021.84;;;16.68;91.69
1401;BME280;46518;48.842;8.926;2022-10-16T02:39:42;97024.63;;;16.76;91.24
1401;BME280;46518;48.842;8.926;2022-10-16T02:42:11;97026.47;;;16.81;90.77
1401;BME280;46518;48.842;8.926;2022-10-16T02:44:40;97022.44;;;16.84;90.55
1401;BME280;46518;48.842;8.926;2022-10-16T02:47:08;97024.94;;;16.94;90.12
1401;BME280;46518;48.842;8.926;2022-10-16T02:49:36;97025.22;;;16.92;89.80
1401;BME280;46518;48.842;8.926;2022-10-16T02:52:04;97026.50;;;16.76;90.47
1401;BME280;46518;48.842;8.926;2022-10-16T02:54:32;97029.94;;;16.76;90.19
1401;BME280;46518;48.842;8.926;2022-10-16T02:57:00;97025.38;;;16.82;90.21
1401;BME280;46518;48.842;8.926;2022-10-16T02:59:29;97021.94;;;16.81;90.21
1401;BME280;46518;48.842;8.926;2022-10-16T03:01:58;97034.56;;;16.90;89.97
1401;BME280;46518;48.842;8.926;2022-10-16T03:04:26;97020.06;;;16.82;89.68
1401;BME280;46518;48.842;8.926;2022-10-16T03:06:55;97034.63;;;16.85;89.78
1401;BME280;46518;48.842;8.926;2022-10-16T03:09:23;97034.88;;;16.88;89.30
1401;BME280;46518;48.842;8.926;2022-10-16T03:11:51;97031.50;;;16.83;88.83
1401;BME280;46518;48.842;8.926;2022-10-16T03:14:19;97015.38;;;16.55;89.46
1401;BME280;46518;48.842;8.926;2022-10-16T03:16:47;97030.56;;;16.49;90.59
1401;BME280;46518;48.842;8.926;2022-10-16T03:19:17;97035.34;;;16.47;90.91
1401;BME280;46518;48.842;8.926;2022-10-16T03:21:45;97036.91;;;16.29;91.91
1401;BME280;46518;48.842;8.926;2022-10-16T03:24:14;97019.75;;;16.22;92.29
1401;BME280;46518;48.842;8.926;2022-10-16T03:26:42;97027.19;;;16.44;92.18
1401;BME280;46518;48.842;8.926;2022-10-16T03:29:10;97034.81;;;16.50;91.57
1401;BME280;46518;48.842;8.926;2022-10-16T03:31:38;97029.91;;;16.38;91.75
1401;BME280;46518;48.842;8.926;2022-10-16T03:34:06;97018.03;;;16.31;91.56
1401;BME280;46518;48.842;8.926;2022-10-16T03:36:36;97023.53;;;16.15;92.86
1401;BME280;46518;48.842;8.926;2022-10-16T03:39:04;97033.06;;;16.16;93.33
1401;BME280;46518;48.842;8.926;2022-10-16T03:41:32;97042.47;;;16.09;93.86
1401;BME280;46518;48.842;8.926;2022-10-16T03:44:00;97036.69;;;16.26;93.21
1401;BME280;46518;48.842;8.926;2022-10-16T03:46:28;97032.50;;;16.20;93.33
1401;BME280;46518;48.842;8.926;2022-10-16T03:48:57;97036.25;;;16.18;93.15
1401;BME280;46518;48.842;8.926;2022-10-16T03:51:25;97036.31;;;16.13;93.46
1401;BME280;46518;48.842;8.926;2022-10-16T03:53:54;97036.63;;;16.07;94.84
1401;BME280;46518;48.842;8.926;2022-10-16T03:56:22;97039.41;;;15.96;95.21
1401;BME280;46518;48.842;8.926;2022-10-16T03:58:51;97043.41;;;15.94;94.82
1401;BME280;46518;48.842;8.926;2022-10-16T04:01:19;97043.72;;;15.87;95.17
1401;BME280;46518;48.842;8.926;2022-10-16T04:03:47;97037.41;;;15.83;95.46
1401;BME280;46518;48.842;8.926;2022-10-16T04:06:15;97037.06;;;15.90;95.99
1401;BME280;46518;48.842;8.926;2022-10-16T04:08:46;97016.75;;;15.80;95.78
1401;BME280;46518;48.842;8.926;2022-10-16T04:11:15;97031.22;;;15.93;94.77
1401;BME280;46518;48.842;8.926;2022-10-16T04:13:43;97022.50;;;15.87;94.69
1401;BME280;46518;48.842;8.926;2022-10-16T04:16:11;97023.94;;;16.04;94.56
1401;BME280;46518;48.842;8.926;2022-10-16T04:18:40;97023.25;;;15.93;94.66
1401;BME280;46518;48.842;8.926;2022-10-16T04:21:08;97008.22;;;15.83;94.60
1401;BME280;46518;48.842;8.926;2022-10-16T04:23:36;97031.78;;;16.14;94.24
1401;BME280;46518;48.842;8.926;2022-10-16T04:26:04;97027.66;;;16.03;93.80
1401;BME280;46518;48.842;8.926;2022-10-16T04:28:34;97020.72;;;16.07;93.11
1401;BME280;46518;48.842;8.926;2022-10-16T04:31:03;97024.00;;;16.23;92.88
1401;BME280;46518;48.842;8.926;2022-10-16T04:33:32;97043.59;;;16.27;92.61
1401;BME280;46518;48.842;8.926;2022-10-16T04:36:01;97049.25;;;16.20;92.82
1401;BME280;46518;48.842;8.926;2022-10-16T04:38:29;97048.38;;;16.25;92.31
1401;BME280;46518;48.842;8.926;2022-10-16T04:40:58;97048.88;;;16.27;92.44
1401;BME280;46518;48.842;8.926;2022-10-16T04:43:26;97060.88;;;16.24;92.78
1401;BME280;46518;48.842;8.926;2022-10-16T04:45:55;97058.91;;;16.11;92.62
1401;BME280;46518;48.842;8.926;2022-10-16T04:48:24;97070.03;;;16.13;92.79
1401;BME280;46518;48.842;8.926;2022-10-16T04:50:52;97068.09;;;15.94;93.66
1401;BME280;46518;48.842;8.926;2022-10-16T04:53:21;97046.47;;;15.77;94.39
1401;BME280;46518;48.842;8.926;2022-10-16T04:55:49;97075.78;;;15.96;93.94
1401;BME280;46518;48.842;8.926;2022-10-16T04:58:17;97073.50;;;15.84;94.51
1401;BME280;46518;48.842;8.926;2022-10-16T05:00:46;97074.47;;;15.93;94.30
1401;BME280;46518;48.842;8.926;2022-10-16T05:03:15;97080.00;;;15.97;94.16
1401;BME280;46518;48.842;8.926;2022-10-16T05:05:44;97079.16;;;16.02;93.66
1401;BME280;46518;48.842;8.926;2022-10-16T05:08:13;97071.81;;;15.93;94.38
1401;BME280;46518;48.842;8.926;2022-10-16T05:10:43;97069.13;;;15.99;93.78
1401;BME280;46518;48.842;8.926;2022-10-16T05:13:12;97060.81;;;16.05;93.21
1401;BME280;46518;48.842;8.926;2022-10-16T05:15:40;97054.94;;;16.08;92.44
1401;BME280;46518;48.842;8.926;2022-10-16T05:18:08;97068.00;;;16.29;92.30
1401;BME280;46518;48.842;8.926;2022-10-16T05:20:38;97057.94;;;16.26;91.75
1401;BME280;46518;48.842;8.926;2022-10-16T05:23:06;97066.38;;;16.33;90.99
1401;BME280;46518;48.842;8.926;2022-10-16T05:25:36;97066.38;;;16.33;90.92
1401;BME280;46518;48.842;8.926;2022-10-16T05:28:04;97078.69;;;16.24;91.45
1401;BME280;46518;48.842;8.926;2022-10-16T05:30:33;97078.88;;;16.27;91.27
1401;BME280;46518;48.842;8.926;2022-10-16T05:33:01;97073.69;;;16.17;91.33
1401;BME280;46518;48.842;8.926;2022-10-16T05:35:29;97073.28;;;16.05;92.37
1401;BME280;46518;48.842;8.926;2022-10-16T05:37:59;97069.56;;;16.06;92.32
1401;BME280;46518;48.842;8.926;2022-10-16T05:40:28;97074.88;;;16.06;92.64
1401;BME280;46518;48.842;8.926;2022-10-16T05:42:56;97085.44;;;16.11;92.54
1401;BME280;46518;48.842;8.926;2022-10-16T05:45:24;97079.69;;;16.04;92.45
1401;BME280;46518;48.842;8.926;2022-10-16T05:47:54;97087.63;;;16.04;92.44
1401;BME280;46518;48.842;8.926;2022-10-16T05:50:22;97093.41;;;16.11;92.51
1401;BME280;46518;48.842;8.926;2022-10-16T05:52:50;97097.88;;;16.15;91.90
1401;BME280;46518;48.842;8.926;2022-10-16T05:55:20;97092.84;;;16.14;92.20
1401;BME280;46518;48.842;8.926;2022-10-16T05:57:54;97089.13;;;16.15;92.12
1401;BME280;46518;48.842;8.926;2022-10-16T06:00:22;97088.63;;;16.13;91.90
1401;BME280;46518;48.842;8.926;2022-10-16T06:02:56;97087.84;;;16.07;91.96
1401;BME280;46518;48.842;8.926;2022-10-16T06:05:27;97085.25;;;16.02;92.78
1401;BME280;46518;48.842;8.926;2022-10-16T06:08:05;97079.09;;;16.07;92.24
1401;BME280;46518;48.842;8.926;2022-10-16T06:10:45;97073.13;;;15.96;92.13
1401;BME280;46518;48.842;8.926;2022-10-16T06:13:14;97101.31;;;15.87;93.39
1401;BME280;46518;48.842;8.926;2022-10-16T06:15:43;97104.22;;;15.90;93.61
1401;BME280;46518;48.842;8.926;2022-10-16T06:18:11;97101.22;;;15.97;93.71
1401;BME280;46518;48.842;8.926;2022-10-16T06:20:40;97095.38;;;16.00;93.37
1401;BME280;46518;48.842;8.926;2022-10-16T06:23:08;97096.91;;;16.06;93.07
1401;BME280;46518;48.842;8.926;2022-10-16T06:25:36;97103.53;;;16.09;92.83
1401;BME280;46518;48.842;8.926;2022-10-16T06:28:05;97105.09;;;16.10;93.08
1401;BME280;46518;48.842;8.926;2022-10-16T06:30:33;97104.59;;;16.08;93.21
1401;BME280;46518;48.842;8.926;2022-10-16T06:33:01;97105.97;;;16.05;93.42
1401;BME280;46518;48.842;8.926;2022-10-16T06:35:29;97110.75;;;16.03;93.31
1401;BME280;46518;48.842;8.926;2022-10-16T06:37:58;97128.28;;;15.99;94.17
1401;BME280;46518;48.842;8.926;2022-10-16T06:40:26;97130.00;;;15.85;94.90
1401;BME280;46518;48.842;8.926;2022-10-16T06:42:55;97129.22;;;15.84;95.17
1401;BME280;46518;48.842;8.926;2022-10-16T06:45:25;97127.31;;;15.90;95.01
1401;BME280;46518;48.842;8.926;2022-10-16T06:47:53;97132.81;;;15.99;94.84
1401;BME280;46518;48.842;8.926;2022-10-16T06:50:21;97138.81;;;16.09;94.44
1401;BME280;46518;48.842;8.926;2022-10-16T06:52:49;97142.78;;;16.12;94.01
1401;BME280;46518;48.842;8.926;2022-10-16T06:55:17;97144.19;;;16.04;94.46
1401;BME280;46518;48.842;8.926;2022-10-16T06:57:46;97147.56;;;16.15;94.28
1401;BME280;46518;48.842;8.926;2022-10-16T07:00:15;97151.09;;;16.29;93.60
1401;BME280;46518;48.842;8.926;2022-10-16T07:02:44;97148.44;;;16.29;93.90
1401;BME280;46518;48.842;8.926;2022-10-16T07:05:13;97157.44;;;16.33;93.48
1401;BME280;46518;48.842;8.926;2022-10-16T07:07:42;97142.00;;;16.11;93.18
1401;BME280;46518;48.842;8.926;2022-10-16T07:10:10;97158.38;;;16.18;93.07
1401;BME280;46518;48.842;8.926;2022-10-16T07:12:38;97173.13;;;16.35;92.79
1401;BME280;46518;48.842;8.926;2022-10-16T07:15:07;97157.13;;;16.40;92.35
1401;BME280;46518;48.842;8.926;2022-10-16T07:17:36;97167.69;;;16.45;92.31
1401;BME280;46518;48.842;8.926;2022-10-16T07:20:07;97177.97;;;16.28;92.84
1401;BME280;46518;48.842;8.926;2022-10-16T07:22:41;97169.06;;;16.13;93.37
1401;BME280;46518;48.842;8.926;2022-10-16T07:25:10;97185.97;;;16.23;93.20
1401;BME280;46518;48.842;8.926;2022-10-16T07:27:45;97181.06;;;16.06;94.31
1401;BME280;46518;48.842;8.926;2022-10-16T07:30:38;97186.34;;;16.11;94.34
1401;BME280;46518;48.842;8.926;2022-10-16T07:33:07;97172.41;;;15.95;94.69
1401;BME280;46518;48.842;8.926;2022-10-16T07:35:36;97171.03;;;16.03;94.28
1401;BME280;46518;48.842;8.926;2022-10-16T07:38:04;97182.38;;;16.08;95.15
1401;BME280;46518;48.842;8.926;2022-10-16T07:40:33;97168.41;;;15.98;95.17
1401;BME280;46518;48.842;8.926;2022-10-16T07:43:04;97190.56;;;16.12;95.51
1401;BME280;46518;48.842;8.926;2022-10-16T07:45:32;97200.88;;;16.18;95.96
1401;BME280;46518;48.842;8.926;2022-10-16T07:48:00;97186.50;;;16.20;95.38
1401;BME280;46518;48.842;8.926;2022-10-16T07:50:28;97208.13;;;16.37;95.37
1401;BME280;46518;48.842;8.926;2022-10-16T07:52:58;97190.25;;;16.48;94.51
1401;BME280;46518;48.842;8.926;2022-10-16T07:55:26;97201.28;;;16.60;94.40
1401;BME280;46518;48.842;8.926;2022-10-16T07:57:54;97209.88;;;16.76;93.68
1401;BME280;46518;48.842;8.926;2022-10-16T08:00:27;97197.34;;;16.81;93.19
1401;BME280;46518;48.842;8.926;2022-10-16T08:03:15;97210.13;;;17.03;92.79
1401;BME280;46518;48.842;8.926;2022-10-16T08:05:44;97222.97;;;17.20;92.06
1401;BME280;46518;48.842;8.926;2022-10-16T08:08:36;97204.56;;;17.24;92.15
1401;BME280;46518;48.842;8.926;2022-10-16T08:12:36;97191.19;;;17.29;91.42
1401;BME280;46518;48.842;8.926;2022-10-16T08:15:08;97211.75;;;17.61;90.66
1401;BME280;46518;48.842;8.926;2022-10-16T08:17:37;97213.16;;;17.40;91.11
1401;BME280;46518;48.842;8.926;2022-10-16T08:20:19;97220.69;;;17.33;90.41
1401;BME280;46518;48.842;8.926;2022-10-16T08:22:56;97213.06;;;17.45;89.45
1401;BME280;46518;48.842;8.926;2022-10-16T08:25:27;97233.22;;;17.70;88.97
1401;BME280;46518;48.842;8.926;2022-10-16T08:27:55;97239.41;;;17.65;88.66
1401;BME280;46518;48.842;8.926;2022-10-16T08:30:24;97242.97;;;17.80;88.13
1401;BME280;46518;48.842;8.926;2022-10-16T08:32:52;97241.13;;;17.94;88.08
1401;BME280;46518;48.842;8.926;2022-10-16T08:35:20;97245.00;;;18.02;87.66
1401;BME280;46518;48.842;8.926;2022-10-16T08:37:48;97245.16;;;17.92;87.77
1401;BME280;46518;48.842;8.926;2022-10-16T08:40:18;97251.66;;;17.85;87.69
1401;BME280;46518;48.842;8.926;2022-10-16T08:43:04;97248.63;;;17.92;88.44
1401;BME280;46518;48.842;8.926;2022-10-16T08:45:43;97251.44;;;18.01;88.78
1401;BME280;46518;48.842;8.926;2022-10-16T08:48:20;97248.31;;;18.13;88.00
1401;BME280;46518;48.842;8.926;2022-10-16T08:50:53;97245.44;;;18.09;87.27
1401;BME280;46518;48.842;8.926;2022-10-16T08:53:24;97242.50;;;18.10;87.28
1401;BME280;46518;48.842;8.926;2022-10-16T08:55:55;97241.72;;;18.10;87.07
1401;BME280;46518;48.842;8.926;2022-10-16T08:58:27;97254.56;;;18.22;86.67
1401;BME280;46518;48.842;8.926;2022-10-16T09:00:57;97235.00;;;18.13;86.77
1401;BME280;46518;48.842;8.926;2022-10-16T09:03:37;97226.44;;;18.16;86.42
1401;BME280;46518;48.842;8.926;2022-10-16T09:09:07;97255.72;;;18.16;86.63
1401;BME280;46518;48.842;8.926;2022-10-16T09:11:47;97263.28;;;18.27;86.13
1401;BME280;46518;48.842;8.926;2022-10-16T09:14:45;97269.81;;;18.35;86.29
1401;BME280;46518;48.842;8.926;2022-10-16T09:17:27;97279.69;;;18.16;86.43
1401;BME280;46518;48.842;8.926;2022-10-16T09:20:09;97279.03;;;18.24;86.44
1401;BME280;46518;48.842;8.926;2022-10-16T09:22:41;97278.75;;;18.25;86.21
1401;BME280;46518;48.842;8.926;2022-10-16T09:25:12;97275.34;;;18.39;85.97
1401;BME280;46518;48.842;8.926;2022-10-16T09:27:41;97276.84;;;18.45;85.71
1401;BME280;46518;48.842;8.926;2022-10-16T09:30:13;97272.22;;;18.50;85.88
1401;BME280;46518;48.842;8.926;2022-10-16T09:32:43;97272.63;;;18.58;85.59
1401;BME280;46518;48.842;8.926;2022-10-16T09:35:14;97278.38;;;18.65;85.03
1401;BME280;46518;48.842;8.926;2022-10-16T09:37:45;97286.84;;;18.67;83.57
1401;BME280;46518;48.842;8.926;2022-10-16T09:40:25;97281.41;;;18.77;83.81
1401;BME280;46518;48.842;8.926;2022-10-16T09:43:02;97275.28;;;18.90;83.53
1401;BME280;46518;48.842;8.926;2022-10-16T09:45:40;97283.09;;;19.01;81.81
1401;BME280;46518;48.842;8.926;2022-10-16T09:48:20;97286.16;;;19.08;82.56
1401;BME280;46518;48.842;8.926;2022-10-16T09:51:01;97293.88;;;19.23;81.67
1401;BME280;46518;48.842;8.926;2022-10-16T09:53:42;97301.16;;;19.31;80.59
1401;BME280;46518;48.842;8.926;2022-10-16T09:56:22;97302.56;;;19.15;80.43
1401;BME280;46518;48.842;8.926;2022-10-16T09:58:57;97296.13;;;19.16;79.28
1401;BME280;46518;48.842;8.926;2022-10-16T10:01:35;97296.53;;;19.37;77.62
1401;BME280;46518;48.842;8.926;2022-10-16T10:04:05;97296.13;;;19.44;77.87
1401;BME280;46518;48.842;8.926;2022-10-16T10:06:35;97306.59;;;19.54;78.19
1401;BME280;46518;48.842;8.926;2022-10-16T10:09:14;97296.22;;;19.52;80.51
1401;BME280;46518;48.842;8.926;2022-10-16T10:11:53;97305.31;;;19.65;78.59
1401;BME280;46518;48.842;8.926;2022-10-16T10:14:33;97304.72;;;19.68;78.11
1401;BME280;46518;48.842;8.926;2022-10-16T10:17:16;97301.66;;;19.61;75.71
1401;BME280;46518;48.842;8.926;2022-10-16T10:19:48;97313.75;;;19.72;76.01
1401;BME280;46518;48.842;8.926;2022-10-16T10:22:18;97313.13;;;19.75;78.31
1401;BME280;46518;48.842;8.926;2022-10-16T10:24:55;97313.63;;;19.77;74.96
1401;BME280;46518;48.842;8.926;2022-10-16T10:27:32;97317.66;;;19.89;75.49
1401;BME280;46518;48.842;8.926;2022-10-16T10:30:15;97316.75;;;19.93;76.25
1401;BME280;46518;48.842;8.926;2022-10-16T10:33:10;97319.41;;;20.07;76.34
1401;BME280;46518;48.842;8.926;2022-10-16T10:35:45;97319.34;;;20.21;77.52
1401;BME280;46518;48.842;8.926;2022-10-16T10:38:26;97311.28;;;20.35;76.65
1401;BME280;46518;48.842;8.926;2022-10-16T10:41:12;97310.84;;;20.41;75.23
1401;BME280;46518;48.842;8.926;2022-10-16T10:43:53;97313.84;;;20.40;73.37
1401;BME280;46518;48.842;8.926;2022-10-16T10:46:31;97302.78;;;20.55;74.29
1401;BME280;46518;48.842;8.926;2022-10-16T10:49:19;97315.63;;;20.67;73.73
1401;BME280;46518;48.842;8.926;2022-10-16T10:52:02;97313.16;;;20.79;73.78
1401;BME280;46518;48.842;8.926;2022-10-16T10:54:41;97312.91;;;20.89;73.55
1401;BME280;46518;48.842;8.926;2022-10-16T10:57:21;97306.81;;;21.06;73.65
1401;BME280;46518;48.842;8.926;2022-10-16T11:00:01;97301.94;;;21.08;71.82
1401;BME280;46518;48.842;8.926;2022-10-16T11:02:36;97304.53;;;21.22;70.92
1401;BME280;46518;48.842;8.926;2022-10-16T11:08:11;97307.31;;;21.48;73.80
1401;BME280;46518;48.842;8.926;2022-10-16T11:11:02;97313.78;;;21.47;71.41
1401;BME280;46518;48.842;8.926;2022-10-16T11:13:34;97306.31;;;21.36;70.87
1401;BME280;46518;48.842;8.926;2022-10-16T11:16:15;97318.50;;;21.50;70.06
1401;BME280;46518;48.842;8.926;2022-10-16T11:18:50;97287.16;;;21.51;71.61
1401;BME280;46518;48.842;8.926;2022-10-16T11:21:22;97311.31;;;21.77;70.59
1401;BME280;46518;48.842;8.926;2022-10-16T11:23:59;97308.16;;;21.84;68.70
1401;BME280;46518;48.842;8.926;2022-10-16T11:26:34;97304.56;;;21.88;70.54
1401;BME280;46518;48.842;8.926;2022-10-16T11:29:05;97308.84;;;22.07;70.09
1401;BME280;46518;48.842;8.926;2022-10-16T11:31:43;97309.00;;;22.28;69.68
1401;BME280;46518;48.842;8.926;2022-10-16T11:34:44;97294.97;;;22.05;68.97
1401;BME280;46518;48.842;8.926;2022-10-16T11:37:19;97307.13;;;22.20;68.76
1401;BME280;46518;48.842;8.926;2022-10-16T11:39:50;97296.22;;;22.42;67.00
1401;BME280;46518;48.842;8.926;2022-10-16T11:42:23;97303.16;;;22.52;67.09
1401;BME280;46518;48.842;8.926;2022-10-16T11:45:00;97304.56;;;22.58;66.17
1401;BME280;46518;48.842;8.926;2022-10-16T11:47:35;97310.69;;;22.58;66.47
1401;BME280;46518;48.842;8.926;2022-10-16T11:50:26;97297.28;;;22.67;64.72
1401;BME280;46518;48.842;8.926;2022-10-16T11:53:03;97290.34;;;22.57;64.60
1401;BME280;46518;48.842;8.926;2022-10-16T11:55:39;97286.06;;;22.65;65.28
1401;BME280;46518;48.842;8.926;2022-10-16T11:58:19;97298.19;;;22.71;66.10
1401;BME280;46518;48.842;8.926;2022-10-16T12:00:57;97301.69;;;22.72;65.34
1401;BME280;46518;48.842;8.926;2022-10-16T12:03:30;97294.25;;;22.77;66.30
1401;BME280;46518;48.842;8.926;2022-10-16T12:06:24;97294.84;;;22.92;66.39
1401;BME280;46518;48.842;8.926;2022-10-16T12:08:58;97294.38;;;22.90;64.48
1401;BME280;46518;48.842;8.926;2022-10-16T12:11:34;97294.03;;;22.91;64.10
1401;BME280;46518;48.842;8.926;2022-10-16T12:16:55;97296.94;;;22.77;63.19
1401;BME280;46518;48.842;8.926;2022-10-16T12:19:28;97290.28;;;22.83;63.39
1401;BME280;46518;48.842;8.926;2022-10-16T12:21:58;97294.09;;;22.82;63.27
1401;BME280;46518;48.842;8.926;2022-10-16T12:24:35;97288.25;;;22.80;63.80
1401;BME280;46518;48.842;8.926;2022-10-16T12:27:06;97291.53;;;22.86;63.95
1401;BME280;46518;48.842;8.926;2022-10-16T12:29:39;97286.81;;;22.92;63.52
1401;BME280;46518;48.842;8.926;2022-10-16T12:32:27;97291.00;;;23.10;63.47
1401;BME280;46518;48.842;8.926;2022-10-16T12:35:19;97298.38;;;23.22;62.76
1401;BME280;46518;48.842;8.926;2022-10-16T12:37:49;97299.63;;;23.24;62.61
1401;BME280;46518;48.842;8.926;2022-10-16T12:40:27;97298.78;;;23.03;62.36
1401;BME280;46518;48.842;8.926;2022-10-16T12:42:57;97294.84;;;23.00;63.42
1401;BME280;46518;48.842;8.926;2022-10-16T12:45:28;97290.13;;;22.97;63.52
1401;BME280;46518;48.842;8.926;2022-10-16T12:47:59;97293.88;;;22.96;63.79
1401;BME280;46518;48.842;8.926;2022-10-16T12:50:33;97299.56;;;22.95;64.30
1401;BME280;46518;48.842;8.926;2022-10-16T12:53:19;97298.16;;;22.89;64.76
1401;BME280;46518;48.842;8.926;2022-10-16T12:56:11;97292.66;;;22.85;65.18
1401;BME280;46518;48.842;8.926;2022-10-16T12:59:04;97302.31;;;22.77;64.92
1401;BME280;46518;48.842;8.926;2022-10-16T13:01:56;97305.16;;;22.72;64.98
1401;BME280;46518;48.842;8.926;2022-10-16T13:04:59;97309.41;;;22.73;65.09
1401;BME280;46518;48.842;8.926;2022-10-16T13:07:48;97303.41;;;22.76;65.43
1401;BME280;46518;48.842;8.926;2022-10-16T13:10:30;97305.00;;;22.77;65.47
1401;BME280;46518;48.842;8.926;2022-10-16T13:13:32;97307.97;;;22.76;65.45
1401;BME280;46518;48.842;8.926;2022-10-16T13:16:16;97313.50;;;22.71;65.21
1401;BME280;46518;48.842;8.926;2022-10-16T13:19:00;97311.63;;;22.71;65.83
1401;BME280;46518;48.842;8.926;2022-10-16T13:21:42;97313.03;;;22.69;66.26
1401;BME280;46518;48.842;8.926;2022-10-16T13:24:26;97309.91;;;22.67;66.16
1401;BME280;46518;48.842;8.926;2022-10-16T13:27:10;97316.22;;;22.62;66.12
1401;BME280;46518;48.842;8.926;2022-10-16T13:29:53;97312.13;;;22.56;66.30
1401;BME280;46518;48.842;8.926;2022-10-16T13:32:31;97311.66;;;22.54;66.60
1401;BME280;46518;48.842;8.926;2022-10-16T13:35:19;97316.72;;;22.55;66.10
1401;BME280;46518;48.842;8.926;2022-10-16T13:38:13;97326.78;;;22.58;65.55
1401;BME280;46518;48.842;8.926;2022-10-16T13:40:54;97321.91;;;22.60;65.65
1401;BME280;46518;48.842;8.926;2022-10-16T13:43:32;97314.81;;;22.65;66.00
1401;BME280;46518;48.842;8.926;2022-10-16T13:46:14;97316.38;;;22.66;65.67
1401;BME280;46518;48.842;8.926;2022-10-16T13:48:57;97313.84;;;22.69;65.89
1401;BME280;46518;48.842;8.926;2022-10-16T13:51:31;97321.44;;;22.67;66.09